sensor_id;sensor_type;location;lat;lon;timestamp;P1;durP1;ratioP1;P2;durP2;ratioP2
80578;SDS011;69939;52.402;6.608;2023-08-24T00:00:41;7.72;;;3.75;;
80578;SDS011;69939;52.402;6.608;2023-08-24T00:03:11;5.53;;;4.03;;
80578;SDS011;69939;52.402;6.608;2023-08-24T00:05:43;5.50;;;3.38;;
80578;SDS011;69939;52.402;6.608;2023-08-24T00:08:15;5.85;;;3.85;;
80578;SDS011;69939;52.402;6.608;2023-08-24T00:10:47;7.13;;;3.53;;
80578;SDS011;69939;52.402;6.608;2023-08-24T00:13:16;5.10;;;3.42;;
80578;SDS011;69939;52.402;6.608;2023-08-24T00:15:46;4.95;;;2.80;;
80578;SDS011;69939;52.402;6.608;2023-08-24T00:18:15;5.88;;;3.45;;
80578;SDS011;69939;52.402;6.608;2023-08-24T00:20:47;5.13;;;3.30;;
80578;SDS011;69939;52.402;6.608;2023-08-24T00:23:18;5.57;;;3.38;;
80578;SDS011;69939;52.402;6.608;2023-08-24T00:25:49;5.25;;;3.50;;
80578;SDS011;69939;52.402;6.608;2023-08-24T00:28:19;4.88;;;3.17;;
80578;SDS011;69939;52.402;6.608;2023-08-24T00:30:48;5.90;;;3.53;;
80578;SDS011;69939;52.402;6.608;2023-08-24T00:33:20;4.88;;;3.17;;
80578;SDS011;69939;52.402;6.608;2023-08-24T00:35:49;3.80;;;2.42;;
80578;SDS011;69939;52.402;6.608;2023-08-24T00:38:19;5.93;;;3.53;;
80578;SDS011;69939;52.402;6.608;2023-08-24T00:40:51;4.65;;;3.38;;
80578;SDS011;69939;52.402;6.608;2023-08-24T00:43:21;5.30;;;3.33;;
80578;SDS011;69939;52.402;6.608;2023-08-24T00:45:51;4.80;;;3.47;;
80578;SDS011;69939;52.402;6.608;2023-08-24T00:48:25;5.88;;;3.38;;
80578;SDS011;69939;52.402;6.608;2023-08-24T00:50:57;5.50;;;3.53;;
80578;SDS011;69939;52.402;6.608;2023-08-24T00:53:35;5.95;;;2.83;;
80578;SDS011;69939;52.402;6.608;2023-08-24T00:56:11;3.17;;;2.22;;
80578;SDS011;69939;52.402;6.608;2023-08-24T00:58:40;4.63;;;3.17;;
80578;SDS011;69939;52.402;6.608;2023-08-24T01:01:11;3.17;;;2.58;;
80578;SDS011;69939;52.402;6.608;2023-08-24T01:03:40;4.30;;;3.13;;
80578;SDS011;69939;52.402;6.608;2023-08-24T01:06:09;5.28;;;3.33;;
80578;SDS011;69939;52.402;6.608;2023-08-24T01:08:39;4.60;;;2.78;;
80578;SDS011;69939;52.402;6.608;2023-08-24T01:11:14;4.57;;;2.92;;
80578;SDS011;69939;52.402;6.608;2023-08-24T01:13:59;6.50;;;3.25;;
80578;SDS011;69939;52.402;6.608;2023-08-24T01:16:39;6.05;;;3.13;;
80578;SDS011;69939;52.402;6.608;2023-08-24T01:19:19;6.38;;;3.58;;
80578;SDS011;69939;52.402;6.608;2023-08-24T01:22:05;4.80;;;3.25;;
80578;SDS011;69939;52.402;6.608;2023-08-24T01:24:51;5.03;;;3.22;;
80578;SDS011;69939;52.402;6.608;2023-08-24T01:27:33;5.00;;;3.33;;
80578;SDS011;69939;52.402;6.608;2023-08-24T01:30:05;5.75;;;2.92;;
80578;SDS011;69939;52.402;6.608;2023-08-24T01:32:39;5.78;;;3.38;;
80578;SDS011;69939;52.402;6.608;2023-08-24T01:35:09;6.25;;;3.17;;
80578;SDS011;69939;52.402;6.608;2023-08-24T01:37:41;7.82;;;3.40;;
80578;SDS011;69939;52.402;6.608;2023-08-24T01:40:12;4.30;;;3.45;;
80578;SDS011;69939;52.402;6.608;2023-08-24T01:42:52;4.20;;;3.13;;
80578;SDS011;69939;52.402;6.608;2023-08-24T01:45:28;6.03;;;3.78;;
80578;SDS011;69939;52.402;6.608;2023-08-24T01:48:03;5.30;;;4.20;;
80578;SDS011;69939;52.402;6.608;2023-08-24T01:50:33;9.15;;;3.72;;
80578;SDS011;69939;52.402;6.608;2023-08-24T01:53:04;4.13;;;3.17;;
80578;SDS011;69939;52.402;6.608;2023-08-24T01:55:34;6.20;;;3.20;;
80578;SDS011;69939;52.402;6.608;2023-08-24T01:58:05;6.07;;;3.20;;
80578;SDS011;69939;52.402;6.608;2023-08-24T02:00:35;4.68;;;3.30;;
80578;SDS011;69939;52.402;6.608;2023-08-24T02:03:04;3.83;;;3.42;;
80578;SDS011;69939;52.402;6.608;2023-08-24T02:05:33;4.05;;;3.00;;
80578;SDS011;69939;52.402;6.608;2023-08-24T02:08:03;6.97;;;4.03;;
80578;SDS011;69939;52.402;6.608;2023-08-24T02:10:38;5.88;;;3.40;;
80578;SDS011;69939;52.402;6.608;2023-08-24T02:15:40;9.15;;;3.55;;
80578;SDS011;69939;52.402;6.608;2023-08-24T02:18:10;7.03;;;3.97;;
80578;SDS011;69939;52.402;6.608;2023-08-24T02:20:39;5.18;;;3.10;;
80578;SDS011;69939;52.402;6.608;2023-08-24T02:23:08;4.43;;;3.30;;
80578;SDS011;69939;52.402;6.608;2023-08-24T02:25:41;6.13;;;3.70;;
80578;SDS011;69939;52.402;6.608;2023-08-24T02:28:13;4.78;;;3.72;;
80578;SDS011;69939;52.402;6.608;2023-08-24T02:30:43;4.95;;;3.67;;
80578;SDS011;69939;52.402;6.608;2023-08-24T02:33:12;6.80;;;3.83;;
80578;SDS011;69939;52.402;6.608;2023-08-24T02:35:41;5.10;;;3.50;;
80578;SDS011;69939;52.402;6.608;2023-08-24T02:38:10;4.40;;;4.00;;
80578;SDS011;69939;52.402;6.608;2023-08-24T02:40:40;7.97;;;4.20;;
80578;SDS011;69939;52.402;6.608;2023-08-24T02:43:09;5.13;;;3.70;;
80578;SDS011;69939;52.402;6.608;2023-08-24T02:45:41;5.57;;;3.58;;
80578;SDS011;69939;52.402;6.608;2023-08-24T02:48:10;5.18;;;4.13;;
80578;SDS011;69939;52.402;6.608;2023-08-24T02:53:15;6.85;;;3.78;;
80578;SDS011;69939;52.402;6.608;2023-08-24T02:55:44;4.88;;;3.40;;
80578;SDS011;69939;52.402;6.608;2023-08-24T02:58:14;5.75;;;3.88;;
80578;SDS011;69939;52.402;6.608;2023-08-24T03:00:46;5.28;;;4.35;;
80578;SDS011;69939;52.402;6.608;2023-08-24T03:03:16;7.45;;;4.40;;
80578;SDS011;69939;52.402;6.608;2023-08-24T03:05:55;6.88;;;4.50;;
80578;SDS011;69939;52.402;6.608;2023-08-24T03:08:25;6.05;;;4.15;;
80578;SDS011;69939;52.402;6.608;2023-08-24T03:10:54;7.88;;;4.75;;
80578;SDS011;69939;52.402;6.608;2023-08-24T03:13:24;8.15;;;5.10;;
80578;SDS011;69939;52.402;6.608;2023-08-24T03:15:57;7.22;;;4.28;;
80578;SDS011;69939;52.402;6.608;2023-08-24T03:18:32;6.07;;;4.07;;
80578;SDS011;69939;52.402;6.608;2023-08-24T03:21:02;7.93;;;4.50;;
80578;SDS011;69939;52.402;6.608;2023-08-24T03:23:32;7.82;;;4.55;;
80578;SDS011;69939;52.402;6.608;2023-08-24T03:26:01;7.13;;;5.18;;
80578;SDS011;69939;52.402;6.608;2023-08-24T03:28:31;7.55;;;4.70;;
80578;SDS011;69939;52.402;6.608;2023-08-24T03:31:06;6.85;;;4.90;;
80578;SDS011;69939;52.402;6.608;2023-08-24T03:33:35;6.70;;;4.65;;
80578;SDS011;69939;52.402;6.608;2023-08-24T03:36:04;5.68;;;3.72;;
80578;SDS011;69939;52.402;6.608;2023-08-24T03:38:33;6.97;;;4.13;;
80578;SDS011;69939;52.402;6.608;2023-08-24T03:43:32;4.18;;;3.20;;
80578;SDS011;69939;52.402;6.608;2023-08-24T03:46:05;9.93;;;4.72;;
80578;SDS011;69939;52.402;6.608;2023-08-24T03:48:34;6.68;;;3.35;;
80578;SDS011;69939;52.402;6.608;2023-08-24T03:51:04;7.20;;;4.72;;
80578;SDS011;69939;52.402;6.608;2023-08-24T03:53:33;5.00;;;3.50;;
80578;SDS011;69939;52.402;6.608;2023-08-24T03:56:02;6.07;;;4.18;;
80578;SDS011;69939;52.402;6.608;2023-08-24T03:58:32;6.38;;;4.35;;
80578;SDS011;69939;52.402;6.608;2023-08-24T04:01:01;5.28;;;4.05;;
80578;SDS011;69939;52.402;6.608;2023-08-24T04:03:34;4.55;;;3.72;;
80578;SDS011;69939;52.402;6.608;2023-08-24T04:06:04;4.65;;;3.55;;
80578;SDS011;69939;52.402;6.608;2023-08-24T04:08:33;10.48;;;5.05;;
80578;SDS011;69939;52.402;6.608;2023-08-24T04:11:03;7.30;;;4.30;;
80578;SDS011;69939;52.402;6.608;2023-08-24T04:13:32;7.88;;;5.65;;
80578;SDS011;69939;52.402;6.608;2023-08-24T04:16:01;6.80;;;4.70;;
80578;SDS011;69939;52.402;6.608;2023-08-24T04:18:31;8.55;;;5.20;;
80578;SDS011;69939;52.402;6.608;2023-08-24T04:21:05;8.00;;;4.80;;
80578;SDS011;69939;52.402;6.608;2023-08-24T04:23:36;5.57;;;4.05;;
80578;SDS011;69939;52.402;6.608;2023-08-24T04:26:10;8.88;;;4.72;;
80578;SDS011;69939;52.402;6.608;2023-08-24T04:28:39;9.70;;;5.00;;
80578;SDS011;69939;52.402;6.608;2023-08-24T04:31:09;8.07;;;4.22;;
80578;SDS011;69939;52.402;6.608;2023-08-24T04:33:44;6.50;;;4.40;;
80578;SDS011;69939;52.402;6.608;2023-08-24T04:36:13;9.13;;;4.70;;
80578;SDS011;69939;52.402;6.608;2023-08-24T04:38:42;8.30;;;4.97;;
80578;SDS011;69939;52.402;6.608;2023-08-24T04:41:11;7.65;;;4.35;;
80578;SDS011;69939;52.402;6.608;2023-08-24T04:43:40;7.70;;;5.40;;
80578;SDS011;69939;52.402;6.608;2023-08-24T04:46:10;6.03;;;4.32;;
80578;SDS011;69939;52.402;6.608;2023-08-24T04:51:10;6.20;;;3.92;;
80578;SDS011;69939;52.402;6.608;2023-08-24T04:53:40;5.85;;;4.40;;
80578;SDS011;69939;52.402;6.608;2023-08-24T04:56:10;6.97;;;4.43;;
80578;SDS011;69939;52.402;6.608;2023-08-24T04:58:51;5.20;;;4.20;;
80578;SDS011;69939;52.402;6.608;2023-08-24T05:01:23;13.23;;;4.95;;
80578;SDS011;69939;52.402;6.608;2023-08-24T05:03:53;7.43;;;4.07;;
80578;SDS011;69939;52.402;6.608;2023-08-24T05:06:25;5.70;;;4.20;;
80578;SDS011;69939;52.402;6.608;2023-08-24T05:08:54;10.35;;;4.93;;
80578;SDS011;69939;52.402;6.608;2023-08-24T05:11:24;5.30;;;3.80;;
80578;SDS011;69939;52.402;6.608;2023-08-24T05:13:57;6.93;;;4.55;;
80578;SDS011;69939;52.402;6.608;2023-08-24T05:16:26;7.75;;;4.80;;
80578;SDS011;69939;52.402;6.608;2023-08-24T05:18:58;5.93;;;4.63;;
80578;SDS011;69939;52.402;6.608;2023-08-24T05:21:31;9.07;;;5.28;;
80578;SDS011;69939;52.402;6.608;2023-08-24T05:24:01;7.75;;;3.97;;
80578;SDS011;69939;52.402;6.608;2023-08-24T05:26:31;4.38;;;3.72;;
80578;SDS011;69939;52.402;6.608;2023-08-24T05:31:29;6.18;;;3.95;;
80578;SDS011;69939;52.402;6.608;2023-08-24T05:34:02;6.20;;;4.43;;
80578;SDS011;69939;52.402;6.608;2023-08-24T05:36:34;5.38;;;3.35;;
80578;SDS011;69939;52.402;6.608;2023-08-24T05:39:03;6.13;;;4.30;;
80578;SDS011;69939;52.402;6.608;2023-08-24T05:41:32;6.03;;;4.35;;
80578;SDS011;69939;52.402;6.608;2023-08-24T05:44:01;7.78;;;4.72;;
80578;SDS011;69939;52.402;6.608;2023-08-24T05:46:34;7.18;;;4.45;;
80578;SDS011;69939;52.402;6.608;2023-08-24T05:49:03;5.00;;;4.00;;
80578;SDS011;69939;52.402;6.608;2023-08-24T05:51:35;6.72;;;4.70;;
80578;SDS011;69939;52.402;6.608;2023-08-24T05:54:05;6.18;;;4.18;;
80578;SDS011;69939;52.402;6.608;2023-08-24T05:56:34;6.20;;;3.97;;
80578;SDS011;69939;52.402;6.608;2023-08-24T05:59:03;4.93;;;4.00;;
80578;SDS011;69939;52.402;6.608;2023-08-24T06:01:32;8.95;;;4.18;;
80578;SDS011;69939;52.402;6.608;2023-08-24T06:04:03;4.93;;;3.85;;
80578;SDS011;69939;52.402;6.608;2023-08-24T06:06:36;7.32;;;4.65;;
80578;SDS011;69939;52.402;6.608;2023-08-24T06:09:21;8.20;;;4.45;;
80578;SDS011;69939;52.402;6.608;2023-08-24T06:11:51;7.20;;;4.95;;
80578;SDS011;69939;52.402;6.608;2023-08-24T06:14:24;6.40;;;4.78;;
80578;SDS011;69939;52.402;6.608;2023-08-24T06:16:53;6.68;;;5.07;;
80578;SDS011;69939;52.402;6.608;2023-08-24T06:19:24;7.22;;;4.90;;
80578;SDS011;69939;52.402;6.608;2023-08-24T06:21:53;5.60;;;4.40;;
80578;SDS011;69939;52.402;6.608;2023-08-24T06:24:26;7.20;;;4.63;;
80578;SDS011;69939;52.402;6.608;2023-08-24T06:26:58;5.50;;;4.40;;
80578;SDS011;69939;52.402;6.608;2023-08-24T06:29:29;6.03;;;4.90;;
80578;SDS011;69939;52.402;6.608;2023-08-24T06:31:59;8.05;;;5.80;;
80578;SDS011;69939;52.402;6.608;2023-08-24T06:34:28;6.00;;;4.80;;
80578;SDS011;69939;52.402;6.608;2023-08-24T06:37:01;7.72;;;5.50;;
80578;SDS011;69939;52.402;6.608;2023-08-24T06:39:34;6.05;;;4.93;;
80578;SDS011;69939;52.402;6.608;2023-08-24T06:42:03;8.93;;;5.78;;
80578;SDS011;69939;52.402;6.608;2023-08-24T06:44:33;8.55;;;6.10;;
80578;SDS011;69939;52.402;6.608;2023-08-24T06:47:04;5.80;;;5.20;;
80578;SDS011;69939;52.402;6.608;2023-08-24T06:49:34;7.53;;;5.82;;
80578;SDS011;69939;52.402;6.608;2023-08-24T06:52:03;7.55;;;5.57;;
80578;SDS011;69939;52.402;6.608;2023-08-24T06:54:36;8.65;;;5.90;;
80578;SDS011;69939;52.402;6.608;2023-08-24T06:57:05;9.73;;;5.90;;
80578;SDS011;69939;52.402;6.608;2023-08-24T06:59:34;8.07;;;6.25;;
80578;SDS011;69939;52.402;6.608;2023-08-24T07:02:04;7.55;;;5.97;;
80578;SDS011;69939;52.402;6.608;2023-08-24T07:04:33;8.05;;;6.32;;
80578;SDS011;69939;52.402;6.608;2023-08-24T07:07:05;9.45;;;6.55;;
80578;SDS011;69939;52.402;6.608;2023-08-24T07:09:37;8.50;;;6.30;;
80578;SDS011;69939;52.402;6.608;2023-08-24T07:12:06;7.82;;;6.60;;
80578;SDS011;69939;52.402;6.608;2023-08-24T07:14:35;6.40;;;5.75;;
80578;SDS011;69939;52.402;6.608;2023-08-24T07:17:05;7.82;;;6.93;;
80578;SDS011;69939;52.402;6.608;2023-08-24T07:19:35;7.65;;;6.40;;
80578;SDS011;69939;52.402;6.608;2023-08-24T07:22:07;7.75;;;6.95;;
80578;SDS011;69939;52.402;6.608;2023-08-24T07:24:39;7.68;;;6.88;;
80578;SDS011;69939;52.402;6.608;2023-08-24T07:27:08;7.40;;;6.53;;
80578;SDS011;69939;52.402;6.608;2023-08-24T07:29:38;8.73;;;7.82;;
80578;SDS011;69939;52.402;6.608;2023-08-24T07:32:07;8.25;;;7.43;;
80578;SDS011;69939;52.402;6.608;2023-08-24T07:34:36;8.85;;;6.72;;
80578;SDS011;69939;52.402;6.608;2023-08-24T07:37:06;8.60;;;7.05;;
80578;SDS011;69939;52.402;6.608;2023-08-24T07:39:35;7.90;;;7.10;;
80578;SDS011;69939;52.402;6.608;2023-08-24T07:42:08;7.90;;;6.35;;
80578;SDS011;69939;52.402;6.608;2023-08-24T07:44:38;7.38;;;6.55;;
80578;SDS011;69939;52.402;6.608;2023-08-24T07:47:07;9.35;;;7.30;;
80578;SDS011;69939;52.402;6.608;2023-08-24T07:49:36;7.75;;;7.05;;
80578;SDS011;69939;52.402;6.608;2023-08-24T07:52:11;9.30;;;8.25;;
80578;SDS011;69939;52.402;6.608;2023-08-24T07:54:43;7.82;;;6.75;;
80578;SDS011;69939;52.402;6.608;2023-08-24T07:57:12;7.82;;;7.13;;
80578;SDS011;69939;52.402;6.608;2023-08-24T07:59:41;8.50;;;7.30;;
80578;SDS011;69939;52.402;6.608;2023-08-24T08:02:11;8.15;;;7.35;;
80578;SDS011;69939;52.402;6.608;2023-08-24T08:04:40;7.95;;;7.22;;
80578;SDS011;69939;52.402;6.608;2023-08-24T08:07:09;7.97;;;7.22;;
80578;SDS011;69939;52.402;6.608;2023-08-24T08:09:38;7.47;;;6.78;;
80578;SDS011;69939;52.402;6.608;2023-08-24T08:12:11;8.70;;;7.25;;
80578;SDS011;69939;52.402;6.608;2023-08-24T08:14:40;10.57;;;7.00;;
80578;SDS011;69939;52.402;6.608;2023-08-24T08:17:10;8.63;;;7.28;;
80578;SDS011;69939;52.402;6.608;2023-08-24T08:19:39;10.75;;;7.93;;
80578;SDS011;69939;52.402;6.608;2023-08-24T08:22:08;8.60;;;7.20;;
80578;SDS011;69939;52.402;6.608;2023-08-24T08:24:37;8.48;;;7.60;;
80578;SDS011;69939;52.402;6.608;2023-08-24T08:27:09;8.05;;;7.35;;
80578;SDS011;69939;52.402;6.608;2023-08-24T08:29:38;8.13;;;7.07;;
80578;SDS011;69939;52.402;6.608;2023-08-24T08:32:08;8.25;;;6.57;;
80578;SDS011;69939;52.402;6.608;2023-08-24T08:34:37;8.65;;;7.80;;
80578;SDS011;69939;52.402;6.608;2023-08-24T08:37:06;8.73;;;7.80;;
80578;SDS011;69939;52.402;6.608;2023-08-24T08:39:36;8.63;;;7.82;;
80578;SDS011;69939;52.402;6.608;2023-08-24T08:42:06;8.25;;;7.00;;
80578;SDS011;69939;52.402;6.608;2023-08-24T08:44:46;7.32;;;6.60;;
80578;SDS011;69939;52.402;6.608;2023-08-24T08:47:19;11.75;;;8.63;;
80578;SDS011;69939;52.402;6.608;2023-08-24T08:49:49;8.38;;;7.00;;
80578;SDS011;69939;52.402;6.608;2023-08-24T08:52:23;10.20;;;7.18;;
80578;SDS011;69939;52.402;6.608;2023-08-24T08:54:52;8.25;;;7.45;;
80578;SDS011;69939;52.402;6.608;2023-08-24T08:57:26;8.65;;;7.80;;
80578;SDS011;69939;52.402;6.608;2023-08-24T08:59:58;8.95;;;7.57;;
80578;SDS011;69939;52.402;6.608;2023-08-24T09:02:27;7.80;;;7.00;;
80578;SDS011;69939;52.402;6.608;2023-08-24T09:05:02;10.52;;;7.47;;
80578;SDS011;69939;52.402;6.608;2023-08-24T09:07:32;9.18;;;8.27;;
80578;SDS011;69939;52.402;6.608;2023-08-24T09:10:03;9.27;;;7.47;;
80578;SDS011;69939;52.402;6.608;2023-08-24T09:12:36;10.32;;;7.30;;
80578;SDS011;69939;52.402;6.608;2023-08-24T09:15:06;7.43;;;6.45;;
80578;SDS011;69939;52.402;6.608;2023-08-24T09:17:36;9.52;;;7.45;;
80578;SDS011;69939;52.402;6.608;2023-08-24T09:20:12;7.95;;;7.25;;
80578;SDS011;69939;52.402;6.608;2023-08-24T09:22:43;9.63;;;7.95;;
80578;SDS011;69939;52.402;6.608;2023-08-24T09:25:12;7.55;;;6.72;;
80578;SDS011;69939;52.402;6.608;2023-08-24T09:27:44;8.35;;;6.55;;
80578;SDS011;69939;52.402;6.608;2023-08-24T09:30:13;11.45;;;9.43;;
80578;SDS011;69939;52.402;6.608;2023-08-24T09:32:42;8.07;;;7.25;;
80578;SDS011;69939;52.402;6.608;2023-08-24T09:35:12;8.60;;;7.70;;
80578;SDS011;69939;52.402;6.608;2023-08-24T09:37:44;8.20;;;7.40;;
80578;SDS011;69939;52.402;6.608;2023-08-24T09:40:13;8.70;;;7.20;;
80578;SDS011;69939;52.402;6.608;2023-08-24T09:42:44;8.30;;;6.82;;
80578;SDS011;69939;52.402;6.608;2023-08-24T09:45:14;7.28;;;6.32;;
80578;SDS011;69939;52.402;6.608;2023-08-24T09:47:46;7.72;;;6.95;;
80578;SDS011;69939;52.402;6.608;2023-08-24T09:50:19;7.63;;;6.82;;
80578;SDS011;69939;52.402;6.608;2023-08-24T09:52:48;7.82;;;6.80;;
80578;SDS011;69939;52.402;6.608;2023-08-24T09:55:26;8.02;;;7.03;;
80578;SDS011;69939;52.402;6.608;2023-08-24T09:58:04;8.15;;;6.70;;
80578;SDS011;69939;52.402;6.608;2023-08-24T10:00:39;6.80;;;6.20;;
80578;SDS011;69939;52.402;6.608;2023-08-24T10:03:09;8.27;;;6.90;;
80578;SDS011;69939;52.402;6.608;2023-08-24T10:05:44;6.57;;;5.97;;
80578;SDS011;69939;52.402;6.608;2023-08-24T10:08:14;7.70;;;6.57;;
80578;SDS011;69939;52.402;6.608;2023-08-24T10:10:50;9.02;;;6.30;;
80578;SDS011;69939;52.402;6.608;2023-08-24T10:13:27;8.55;;;6.75;;
80578;SDS011;69939;52.402;6.608;2023-08-24T10:16:08;8.15;;;6.20;;
80578;SDS011;69939;52.402;6.608;2023-08-24T10:18:41;7.78;;;6.72;;
80578;SDS011;69939;52.402;6.608;2023-08-24T10:21:12;11.55;;;7.55;;
80578;SDS011;69939;52.402;6.608;2023-08-24T10:23:43;6.03;;;5.43;;
80578;SDS011;69939;52.402;6.608;2023-08-24T10:26:14;6.45;;;5.85;;
80578;SDS011;69939;52.402;6.608;2023-08-24T10:28:48;7.25;;;5.72;;
80578;SDS011;69939;52.402;6.608;2023-08-24T10:31:19;8.93;;;6.97;;
80578;SDS011;69939;52.402;6.608;2023-08-24T10:33:52;7.38;;;6.03;;
80578;SDS011;69939;52.402;6.608;2023-08-24T10:36:23;6.30;;;5.70;;
80578;SDS011;69939;52.402;6.608;2023-08-24T10:38:55;6.50;;;5.68;;
80578;SDS011;69939;52.402;6.608;2023-08-24T10:41:28;7.70;;;6.93;;
80578;SDS011;69939;52.402;6.608;2023-08-24T10:44:06;7.50;;;6.75;;
80578;SDS011;69939;52.402;6.608;2023-08-24T10:46:36;6.15;;;5.45;;
80578;SDS011;69939;52.402;6.608;2023-08-24T10:49:07;6.75;;;6.13;;
80578;SDS011;69939;52.402;6.608;2023-08-24T10:51:42;6.70;;;5.35;;
80578;SDS011;69939;52.402;6.608;2023-08-24T10:54:13;6.70;;;6.03;;
80578;SDS011;69939;52.402;6.608;2023-08-24T10:56:51;8.95;;;7.15;;
80578;SDS011;69939;52.402;6.608;2023-08-24T10:59:29;9.65;;;6.07;;
80578;SDS011;69939;52.402;6.608;2023-08-24T11:02:03;8.20;;;6.32;;
80578;SDS011;69939;52.402;6.608;2023-08-24T11:04:33;7.25;;;5.35;;
80578;SDS011;69939;52.402;6.608;2023-08-24T11:07:02;7.40;;;6.07;;
80578;SDS011;69939;52.402;6.608;2023-08-24T11:09:44;6.93;;;5.38;;
80578;SDS011;69939;52.402;6.608;2023-08-24T11:12:15;6.45;;;5.57;;
80578;SDS011;69939;52.402;6.608;2023-08-24T11:14:55;7.32;;;5.25;;
80578;SDS011;69939;52.402;6.608;2023-08-24T11:17:29;8.68;;;6.10;;
80578;SDS011;69939;52.402;6.608;2023-08-24T11:20:02;7.97;;;6.38;;
80578;SDS011;69939;52.402;6.608;2023-08-24T11:22:33;6.68;;;6.07;;
80578;SDS011;69939;52.402;6.608;2023-08-24T11:25:05;6.50;;;5.82;;
80578;SDS011;69939;52.402;6.608;2023-08-24T11:27:40;6.22;;;5.05;;
80578;SDS011;69939;52.402;6.608;2023-08-24T11:30:16;9.20;;;5.95;;
80578;SDS011;69939;52.402;6.608;2023-08-24T11:32:46;5.43;;;4.72;;
80578;SDS011;69939;52.402;6.608;2023-08-24T11:35:21;5.65;;;4.32;;
80578;SDS011;69939;52.402;6.608;2023-08-24T11:37:51;6.32;;;4.90;;
80578;SDS011;69939;52.402;6.608;2023-08-24T11:40:21;7.47;;;6.15;;
80578;SDS011;69939;52.402;6.608;2023-08-24T11:42:53;9.25;;;6.05;;
80578;SDS011;69939;52.402;6.608;2023-08-24T11:45:28;7.45;;;5.40;;
80578;SDS011;69939;52.402;6.608;2023-08-24T11:48:06;6.20;;;5.25;;
80578;SDS011;69939;52.402;6.608;2023-08-24T11:50:37;6.10;;;5.03;;
80578;SDS011;69939;52.402;6.608;2023-08-24T11:53:07;5.63;;;3.95;;
80578;SDS011;69939;52.402;6.608;2023-08-24T11:55:39;5.55;;;3.90;;
80578;SDS011;69939;52.402;6.608;2023-08-24T11:58:17;4.07;;;3.63;;
80578;SDS011;69939;52.402;6.608;2023-08-24T12:00:49;5.50;;;3.70;;
80578;SDS011;69939;52.402;6.608;2023-08-24T12:03:19;4.93;;;3.55;;
80578;SDS011;69939;52.402;6.608;2023-08-24T12:05:48;3.92;;;3.53;;
80578;SDS011;69939;52.402;6.608;2023-08-24T12:08:18;5.97;;;3.75;;
80578;SDS011;69939;52.402;6.608;2023-08-24T12:10:47;4.32;;;3.88;;
80578;SDS011;69939;52.402;6.608;2023-08-24T12:13:16;6.78;;;3.72;;
80578;SDS011;69939;52.402;6.608;2023-08-24T12:15:45;4.53;;;3.13;;
80578;SDS011;69939;52.402;6.608;2023-08-24T12:18:19;5.15;;;3.55;;
80578;SDS011;69939;52.402;6.608;2023-08-24T12:20:48;4.05;;;3.45;;
80578;SDS011;69939;52.402;6.608;2023-08-24T12:23:17;4.75;;;3.25;;
80578;SDS011;69939;52.402;6.608;2023-08-24T12:25:53;5.95;;;3.20;;
80578;SDS011;69939;52.402;6.608;2023-08-24T12:28:23;4.88;;;3.40;;
80578;SDS011;69939;52.402;6.608;2023-08-24T12:30:52;5.40;;;3.58;;
80578;SDS011;69939;52.402;6.608;2023-08-24T12:33:25;5.90;;;3.60;;
80578;SDS011;69939;52.402;6.608;2023-08-24T12:38:27;4.60;;;3.78;;
80578;SDS011;69939;52.402;6.608;2023-08-24T12:40:57;6.55;;;4.22;;
80578;SDS011;69939;52.402;6.608;2023-08-24T12:43:26;5.80;;;4.15;;
80578;SDS011;69939;52.402;6.608;2023-08-24T12:45:55;5.53;;;4.05;;
80578;SDS011;69939;52.402;6.608;2023-08-24T12:48:27;4.15;;;3.38;;
80578;SDS011;69939;52.402;6.608;2023-08-24T12:50:56;6.90;;;4.25;;
80578;SDS011;69939;52.402;6.608;2023-08-24T12:53:27;5.55;;;4.20;;
80578;SDS011;69939;52.402;6.608;2023-08-24T12:55:56;4.40;;;4.00;;
80578;SDS011;69939;52.402;6.608;2023-08-24T12:58:26;7.13;;;4.30;;
80578;SDS011;69939;52.402;6.608;2023-08-24T13:00:55;4.35;;;3.45;;
80578;SDS011;69939;52.402;6.608;2023-08-24T13:03:27;5.85;;;4.10;;
80578;SDS011;69939;52.402;6.608;2023-08-24T13:05:56;5.45;;;4.07;;
80578;SDS011;69939;52.402;6.608;2023-08-24T13:08:25;5.32;;;3.85;;
80578;SDS011;69939;52.402;6.608;2023-08-24T13:10:54;4.70;;;3.90;;
80578;SDS011;69939;52.402;6.608;2023-08-24T13:13:23;6.00;;;3.53;;
80578;SDS011;69939;52.402;6.608;2023-08-24T13:15:52;4.32;;;3.92;;
80578;SDS011;69939;52.402;6.608;2023-08-24T13:18:21;4.93;;;3.50;;
80578;SDS011;69939;52.402;6.608;2023-08-24T13:20:53;4.75;;;3.45;;
80578;SDS011;69939;52.402;6.608;2023-08-24T13:23:22;6.93;;;4.05;;
80578;SDS011;69939;52.402;6.608;2023-08-24T13:25:51;5.20;;;3.42;;
80578;SDS011;69939;52.402;6.608;2023-08-24T13:28:21;6.68;;;3.30;;
80578;SDS011;69939;52.402;6.608;2023-08-24T13:30:50;5.63;;;3.05;;
80578;SDS011;69939;52.402;6.608;2023-08-24T13:33:19;4.25;;;3.53;;
80578;SDS011;69939;52.402;6.608;2023-08-24T13:35:48;6.93;;;3.72;;
80578;SDS011;69939;52.402;6.608;2023-08-24T13:38:20;3.92;;;3.45;;
80578;SDS011;69939;52.402;6.608;2023-08-24T13:40:49;7.45;;;4.15;;
80578;SDS011;69939;52.402;6.608;2023-08-24T13:43:18;5.57;;;3.47;;
80578;SDS011;69939;52.402;6.608;2023-08-24T13:45:47;4.20;;;3.47;;
80578;SDS011;69939;52.402;6.608;2023-08-24T13:48:18;5.45;;;3.72;;
80578;SDS011;69939;52.402;6.608;2023-08-24T13:50:49;4.30;;;3.60;;
80578;SDS011;69939;52.402;6.608;2023-08-24T13:53:22;4.88;;;3.65;;
80578;SDS011;69939;52.402;6.608;2023-08-24T13:55:51;5.15;;;4.20;;
80578;SDS011;69939;52.402;6.608;2023-08-24T13:58:20;5.40;;;3.85;;
80578;SDS011;69939;52.402;6.608;2023-08-24T14:00:54;4.27;;;3.70;;
80578;SDS011;69939;52.402;6.608;2023-08-24T14:03:24;5.43;;;3.70;;
80578;SDS011;69939;52.402;6.608;2023-08-24T14:05:54;4.50;;;2.92;;
80578;SDS011;69939;52.402;6.608;2023-08-24T14:08:26;4.00;;;3.22;;
80578;SDS011;69939;52.402;6.608;2023-08-24T14:10:56;4.82;;;3.35;;
80578;SDS011;69939;52.402;6.608;2023-08-24T14:13:25;6.00;;;3.33;;
80578;SDS011;69939;52.402;6.608;2023-08-24T14:15:55;3.97;;;3.38;;
80578;SDS011;69939;52.402;6.608;2023-08-24T14:18:27;5.47;;;3.90;;
80578;SDS011;69939;52.402;6.608;2023-08-24T14:20:56;5.50;;;3.47;;
80578;SDS011;69939;52.402;6.608;2023-08-24T14:23:31;6.72;;;4.07;;
80578;SDS011;69939;52.402;6.608;2023-08-24T14:26:32;6.15;;;3.90;;
80578;SDS011;69939;52.402;6.608;2023-08-24T14:29:02;6.93;;;4.30;;
80578;SDS011;69939;52.402;6.608;2023-08-24T14:31:31;4.45;;;4.03;;
80578;SDS011;69939;52.402;6.608;2023-08-24T14:34:00;5.35;;;3.67;;
80578;SDS011;69939;52.402;6.608;2023-08-24T14:36:29;7.00;;;3.88;;
80578;SDS011;69939;52.402;6.608;2023-08-24T14:39:03;5.88;;;4.22;;
80578;SDS011;69939;52.402;6.608;2023-08-24T14:41:32;7.47;;;4.13;;
80578;SDS011;69939;52.402;6.608;2023-08-24T14:44:01;6.40;;;4.60;;
80578;SDS011;69939;52.402;6.608;2023-08-24T14:46:31;5.88;;;4.60;;
80578;SDS011;69939;52.402;6.608;2023-08-24T14:49:03;8.90;;;5.60;;
80578;SDS011;69939;52.402;6.608;2023-08-24T14:51:44;5.82;;;4.68;;
80578;SDS011;69939;52.402;6.608;2023-08-24T14:54:16;8.98;;;4.68;;
80578;SDS011;69939;52.402;6.608;2023-08-24T14:56:45;6.00;;;4.55;;
80578;SDS011;69939;52.402;6.608;2023-08-24T14:59:16;7.43;;;5.20;;
80578;SDS011;69939;52.402;6.608;2023-08-24T15:01:45;6.50;;;5.03;;
80578;SDS011;69939;52.402;6.608;2023-08-24T15:04:16;8.20;;;5.28;;
80578;SDS011;69939;52.402;6.608;2023-08-24T15:06:45;8.98;;;5.95;;
80578;SDS011;69939;52.402;6.608;2023-08-24T15:09:17;6.80;;;6.20;;
80578;SDS011;69939;52.402;6.608;2023-08-24T15:11:48;8.88;;;6.00;;
80578;SDS011;69939;52.402;6.608;2023-08-24T15:14:17;6.53;;;5.80;;
80578;SDS011;69939;52.402;6.608;2023-08-24T15:16:46;8.88;;;6.43;;
80578;SDS011;69939;52.402;6.608;2023-08-24T15:19:15;9.60;;;6.28;;
80578;SDS011;69939;52.402;6.608;2023-08-24T15:21:44;9.13;;;6.90;;
80578;SDS011;69939;52.402;6.608;2023-08-24T15:24:13;10.13;;;6.38;;
80578;SDS011;69939;52.402;6.608;2023-08-24T15:26:53;7.03;;;5.50;;